Terminal Aerodrome Forecast
Issued by NWS

Home | Current Version | Previous Version | Text Only | Print | Product List | Glossary On
Versions: 1 2 3 4 5 6 7 8 9 10 11 12 13
000
FTUS42 TJSJ 050528
TAFJPS
TAF
TJPS 050528Z 0506/0606 08008KT P6SM FEW030
     FM051400 14014KT P6SM FEW030
     FM052330 07009KT P6SM FEW030
      AMD NOT SKED 0512/0603=

USA.gov is the U.S. government's official web portal to all federal, state and local government web resources and services.